Terminal Aerodrome Forecast
Issued by NWS Sioux Falls, SD

Home | Current Version | Previous Version | Graphics & Text | Print | Product List | Glossary Off
Versions: 1 2 3 4 5 6 7 8 9 10 11 12 13 14 15 16

000
FTUS43 KFSD 242320
TAFHON
TAF
KHON 242320Z 2500/2524 11010KT P6SM SCT035 SCT200
      TEMPO 2500/2501 6SM TSRA BKN035CB
     FM250300 08009KT P6SM BKN025
     FM250800 06011KT P6SM OVC018
     FM251600 07011KT P6SM OVC025
     FM251900 07011KT P6SM BKN035=

USA.gov is the U.S. government's official web portal to all federal, state and local government web resources and services.